createdAt,value
2022-11-21T00:01:54.619Z,27.30
2022-11-21T00:04:27.113Z,27.00
2022-11-21T00:06:59.762Z,28.00
2022-11-21T00:09:34.016Z,26.20
2022-11-21T00:12:06.522Z,27.70
2022-11-21T00:14:40.745Z,26.00
2022-11-21T00:17:13.712Z,26.50
2022-11-21T00:19:45.767Z,26.60
2022-11-21T00:22:17.904Z,25.90
2022-11-21T00:24:54.048Z,25.00
2022-11-21T00:27:26.483Z,26.70
2022-11-21T00:30:00.303Z,26.00
2022-11-21T00:32:32.829Z,25.30
2022-11-21T00:35:05.351Z,27.60
2022-11-21T00:37:38.223Z,25.40
2022-11-21T00:40:13.014Z,25.00
2022-11-21T00:42:45.751Z,27.20
2022-11-21T00:45:23.904Z,27.60
2022-11-21T00:47:56.547Z,28.60
2022-11-21T00:50:28.693Z,27.40
2022-11-21T00:53:01.275Z,25.30
2022-11-21T00:55:33.425Z,28.90
2022-11-21T00:58:05.685Z,28.10
2022-11-21T01:00:37.822Z,31.20
2022-11-21T01:03:13.248Z,28.60
2022-11-21T01:05:45.398Z,26.90
2022-11-21T01:08:17.727Z,29.50
2022-11-21T01:10:53.003Z,29.10
2022-11-21T01:13:25.104Z,30.60
2022-11-21T01:15:57.634Z,31.30
2022-11-21T01:18:29.779Z,33.70
2022-11-21T01:21:08.147Z,31.10
2022-11-21T01:23:40.660Z,29.70
2022-11-21T01:26:15.221Z,27.60
2022-11-21T01:28:47.838Z,29.40
2022-11-21T01:31:21.678Z,30.60
2022-11-21T01:33:54.296Z,33.90
2022-11-21T01:36:28.759Z,33.20
2022-11-21T01:39:03.367Z,31.90
2022-11-21T01:41:37.528Z,32.60
2022-11-21T01:44:24.502Z,31.90
2022-11-21T01:46:56.949Z,29.40
2022-11-21T01:49:32.007Z,31.80
2022-11-21T01:52:08.517Z,33.90
2022-11-21T01:54:44.294Z,32.70
2022-11-21T01:57:20.595Z,31.70
2022-11-21T01:59:58.049Z,34.20
2022-11-21T02:02:34.201Z,29.20
2022-11-21T02:05:10.489Z,29.10
2022-11-21T02:07:45.720Z,34.40
2022-11-21T02:10:19.304Z,31.10
2022-11-21T02:12:54.845Z,32.50
2022-11-21T02:15:30.354Z,34.00
2022-11-21T02:18:03.572Z,33.90
2022-11-21T02:20:36.514Z,34.30
2022-11-21T02:23:14.282Z,32.40
2022-11-21T02:25:46.844Z,33.40
2022-11-21T02:28:21.351Z,33.90
2022-11-21T02:30:53.460Z,35.10
2022-11-21T02:33:28.249Z,31.90
2022-11-21T02:36:01.947Z,30.60
2022-11-21T02:38:39.411Z,33.20
2022-11-21T02:41:18.602Z,34.50
2022-11-21T02:43:54.211Z,34.90
2022-11-21T02:46:27.076Z,35.20
2022-11-21T02:48:59.825Z,37.50
2022-11-21T02:51:33.842Z,36.40
2022-11-21T02:54:09.130Z,30.50
2022-11-21T02:56:41.367Z,33.40
2022-11-21T02:59:13.469Z,29.50
2022-11-21T03:01:45.828Z,32.30
2022-11-21T03:04:20.720Z,32.60
2022-11-21T03:06:52.772Z,33.70
2022-11-21T03:09:24.850Z,34.20
2022-11-21T03:11:57.262Z,34.60
2022-11-21T03:14:29.626Z,32.60
2022-11-21T03:17:01.982Z,30.50
2022-11-21T03:19:34.281Z,32.20
2022-11-21T03:22:06.436Z,35.50
2022-11-21T03:24:38.533Z,35.30
2022-11-21T03:27:10.656Z,36.30
2022-11-21T03:29:42.759Z,38.80
2022-11-21T03:32:14.900Z,36.60
2022-11-21T03:34:47.125Z,35.60
2022-11-21T03:37:19.244Z,36.60
2022-11-21T03:39:51.389Z,37.80
2022-11-21T03:42:23.604Z,36.60
2022-11-21T03:44:55.802Z,38.80
2022-11-21T03:47:27.817Z,36.10
2022-11-21T03:49:59.931Z,36.20
2022-11-21T03:52:32.190Z,38.20
2022-11-21T03:55:04.529Z,40.50
2022-11-21T03:57:36.656Z,32.20
2022-11-21T04:00:12.904Z,38.90
2022-11-21T04:02:44.949Z,39.10
2022-11-21T04:05:17.295Z,34.70
2022-11-21T04:07:49.582Z,34.00
2022-11-21T04:10:22.111Z,38.00
2022-11-21T04:12:54.676Z,38.20
2022-11-21T04:15:27.462Z,35.50
2022-11-21T04:17:59.566Z,40.30
2022-11-21T04:20:31.639Z,36.00
2022-11-21T04:23:09.217Z,45.30
2022-11-21T04:25:41.724Z,46.50
2022-11-21T04:28:16.289Z,45.60
2022-11-21T04:30:48.507Z,47.80
2022-11-21T04:33:21.078Z,43.30
2022-11-21T04:35:54.394Z,46.70
2022-11-21T04:38:26.918Z,47.10
2022-11-21T04:40:59.111Z,46.60
2022-11-21T04:43:31.179Z,88.60
2022-11-21T04:46:03.440Z,75.40
2022-11-21T04:48:35.534Z,63.20
2022-11-21T04:51:07.742Z,49.60
2022-11-21T04:53:43.077Z,44.80
2022-11-21T04:56:16.714Z,43.60
2022-11-21T04:58:49.222Z,46.30
2022-11-21T05:01:21.336Z,45.70
2022-11-21T05:03:55.012Z,49.90
2022-11-21T05:06:27.188Z,51.40
2022-11-21T05:08:59.264Z,50.80
2022-11-21T05:11:49.236Z,50.80
2022-11-21T05:14:23.587Z,48.90
2022-11-21T05:16:55.749Z,68.50
2022-11-21T05:19:27.812Z,62.20
2022-11-21T05:22:00.037Z,65.40
2022-11-21T05:24:33.158Z,60.70
2022-11-21T05:27:05.499Z,59.40
2022-11-21T05:29:37.910Z,55.70
2022-11-21T05:32:10.089Z,58.30
2022-11-21T05:34:42.471Z,54.50
2022-11-21T05:37:14.688Z,60.00
2022-11-21T05:39:46.759Z,53.40
2022-11-21T05:42:39.126Z,55.90
2022-11-21T05:45:12.529Z,42.20
2022-11-21T05:47:47.095Z,46.30
2022-11-21T05:50:19.792Z,45.80
2022-11-21T05:52:51.911Z,43.80
2022-11-21T05:55:24.791Z,44.20
2022-11-21T05:57:58.788Z,45.80
2022-11-21T06:00:31.371Z,42.80
2022-11-21T06:03:21.691Z,58.00
2022-11-21T06:05:53.920Z,68.40
2022-11-21T06:08:26.079Z,80.00
2022-11-21T06:10:58.692Z,72.20
2022-11-21T06:13:31.131Z,69.60
2022-11-21T06:16:06.122Z,70.40
2022-11-21T06:18:39.584Z,69.40
2022-11-21T06:21:15.172Z,55.60
2022-11-21T06:23:48.039Z,44.00
2022-11-21T06:26:21.856Z,48.30
2022-11-21T06:28:54.374Z,45.40
2022-11-21T06:31:28.405Z,54.10
2022-11-21T06:34:01.565Z,45.70
2022-11-21T06:36:33.906Z,36.60
2022-11-21T06:39:06.694Z,36.90
2022-11-21T06:41:39.079Z,40.50
2022-11-21T06:44:11.359Z,36.50
2022-11-21T06:46:52.905Z,39.50
2022-11-21T06:49:32.147Z,38.70
2022-11-21T06:52:06.103Z,30.50
2022-11-21T06:54:38.779Z,39.20
2022-11-21T06:57:11.025Z,39.00
2022-11-21T06:59:43.732Z,40.20
2022-11-21T07:02:18.163Z,38.00
2022-11-21T07:04:50.573Z,38.20
2022-11-21T07:07:23.346Z,37.60
2022-11-21T07:09:56.983Z,38.40
2022-11-21T07:12:47.139Z,37.80
2022-11-21T07:15:19.709Z,34.40
2022-11-21T07:17:51.899Z,35.40
2022-11-21T07:20:24.332Z,40.20
2022-11-21T07:22:58.003Z,41.00
2022-11-21T07:25:36.638Z,43.90
2022-11-21T07:28:10.293Z,42.60
2022-11-21T07:30:42.409Z,41.60
2022-11-21T07:33:14.964Z,40.90
2022-11-21T07:35:47.248Z,39.10
2022-11-21T07:38:20.314Z,40.80
2022-11-21T07:40:52.871Z,39.20
2022-11-21T07:43:25.274Z,42.70
2022-11-21T07:45:57.845Z,39.70
2022-11-21T07:48:30.805Z,42.30
2022-11-21T07:51:06.494Z,41.20
2022-11-21T07:53:38.800Z,52.10
2022-11-21T07:56:11.126Z,44.10
2022-11-21T07:58:43.254Z,42.80
2022-11-21T08:01:15.435Z,42.80
2022-11-21T08:03:47.762Z,45.60
2022-11-21T08:06:20.066Z,40.90
2022-11-21T08:08:56.066Z,49.50
2022-11-21T08:11:29.047Z,53.60
2022-11-21T08:14:04.996Z,53.40
2022-11-21T08:16:37.667Z,44.00
2022-11-21T08:19:10.096Z,53.70
2022-11-21T08:21:42.333Z,46.70
2022-11-21T08:24:14.813Z,44.00
2022-11-21T08:26:47.633Z,43.40
2022-11-21T08:29:20.464Z,43.20
2022-11-21T08:31:52.815Z,43.20
2022-11-21T08:34:25.547Z,47.50
2022-11-21T08:53:02.641Z,37.80
2022-11-21T08:55:34.995Z,38.00
2022-11-21T08:58:07.281Z,36.80
2022-11-21T09:01:10.474Z,37.60
2022-11-21T09:03:49.086Z,35.70
2022-11-21T09:06:21.250Z,34.10
2022-11-21T09:09:10.634Z,35.30
2022-11-21T09:11:49.099Z,34.60
2022-11-21T09:19:05.196Z,33.00
2022-11-21T09:22:22.182Z,29.50
2022-11-21T09:25:49.270Z,31.70
2022-11-21T09:28:28.235Z,30.50
2022-11-21T09:34:50.417Z,32.10
2022-11-21T09:42:52.962Z,26.80
2022-11-21T09:49:34.906Z,25.20
2022-11-21T09:57:34.621Z,25.10
2022-11-21T10:04:32.497Z,24.50
2022-11-21T10:12:14.106Z,26.10
2022-11-21T10:24:20.849Z,25.20
2022-11-21T10:31:16.779Z,23.40
2022-11-21T10:33:51.659Z,24.30
2022-11-21T10:36:31.800Z,25.40
2022-11-21T10:39:20.041Z,25.30
2022-11-21T10:42:03.699Z,25.00
2022-11-21T10:44:53.600Z,26.50
2022-11-21T10:56:55.205Z,30.70
2022-11-21T11:04:31.884Z,28.60
2022-11-21T11:12:51.626Z,28.80
2022-11-21T11:15:26.413Z,28.30
2022-11-21T11:18:21.118Z,30.00
2022-11-21T11:20:56.426Z,29.30
2022-11-21T11:29:24.086Z,25.20
2022-11-21T11:31:59.604Z,26.70
2022-11-21T11:39:45.506Z,24.70
2022-11-21T12:00:48.239Z,19.70
2022-11-21T12:21:31.713Z,21.80
2022-11-21T12:24:06.132Z,19.40
2022-11-21T12:27:32.855Z,19.60
2022-11-21T12:30:29.711Z,19.40
2022-11-21T13:22:59.991Z,13.30
2022-11-21T13:30:17.080Z,14.10
2022-11-21T13:33:21.063Z,13.90
2022-11-21T13:36:13.372Z,14.20
2022-11-21T13:39:53.761Z,13.60
2022-11-21T13:51:53.239Z,14.40
2022-11-21T13:55:31.250Z,13.50
2022-11-21T14:03:19.181Z,13.60
2022-11-21T14:10:59.246Z,15.40
2022-11-21T14:22:45.186Z,14.60
2022-11-21T14:35:03.950Z,14.00
2022-11-21T14:37:36.650Z,15.10
2022-11-21T14:40:21.329Z,17.60
2022-11-21T14:47:59.266Z,17.30
2022-11-21T15:58:35.422Z,17.30
2022-11-21T16:01:08.037Z,16.70
2022-11-21T16:03:49.613Z,21.30
2022-11-21T16:07:10.560Z,17.10
2022-11-21T16:09:50.134Z,18.60
2022-11-21T16:12:22.372Z,20.70
2022-11-21T16:15:01.134Z,19.50
2022-11-21T16:17:34.684Z,18.80
2022-11-21T16:20:13.856Z,22.60
2022-11-21T16:22:48.011Z,20.80
2022-11-21T16:30:32.502Z,25.80
2022-11-21T16:33:05.789Z,27.20
2022-11-21T16:35:44.829Z,23.40
2022-11-21T16:38:17.060Z,23.60
2022-11-21T16:50:15.193Z,22.20
2022-11-21T16:52:47.474Z,20.20
2022-11-21T16:55:26.101Z,21.50
2022-11-21T16:57:59.452Z,30.50
2022-11-21T17:00:37.916Z,20.30
2022-11-21T17:03:10.204Z,18.70
2022-11-21T17:10:49.508Z,19.00
2022-11-21T17:13:22.093Z,18.30
2022-11-21T17:21:07.324Z,47.20
2022-11-21T17:23:41.771Z,22.00
2022-11-21T17:27:04.871Z,20.40
2022-11-21T17:34:32.771Z,20.30
2022-11-21T17:38:01.919Z,21.20
2022-11-21T17:50:05.561Z,21.00
2022-11-21T17:53:44.852Z,24.90
2022-11-21T18:05:32.282Z,21.80
2022-11-21T18:08:11.020Z,25.10
2022-11-21T18:10:44.246Z,23.10
2022-11-21T18:18:12.291Z,24.90
2022-11-21T18:20:44.638Z,23.20
2022-11-21T18:23:23.904Z,26.80
2022-11-21T18:25:56.251Z,25.70
2022-11-21T18:29:34.154Z,24.10
2022-11-21T18:56:35.431Z,20.90
2022-11-21T18:59:08.875Z,31.50
2022-11-21T19:01:48.281Z,31.20
2022-11-21T19:13:35.424Z,34.30
2022-11-21T19:16:16.992Z,31.20
2022-11-21T19:24:28.168Z,48.10
2022-11-21T19:27:07.065Z,55.50
2022-11-21T19:29:40.722Z,58.70
2022-11-21T19:32:20.169Z,43.10
2022-11-21T19:40:13.108Z,28.40
2022-11-21T19:43:42.221Z,38.30
2022-11-21T19:55:46.289Z,51.00
2022-11-21T20:02:30.793Z,66.40
2022-11-21T20:14:25.015Z,42.80
2022-11-21T20:30:18.465Z,30.50
2022-11-21T20:37:43.214Z,29.90
2022-11-21T20:40:22.074Z,32.10
2022-11-21T20:42:56.236Z,29.40
2022-11-21T20:49:01.080Z,30.50
2022-11-21T20:55:14.412Z,27.90
2022-11-21T20:57:46.869Z,28.10
2022-11-21T21:09:42.120Z,34.60
2022-11-21T21:12:14.318Z,40.40
2022-11-21T21:14:53.025Z,43.60
2022-11-21T21:17:25.349Z,37.80
2022-11-21T21:29:40.788Z,33.50
2022-11-21T21:32:12.971Z,32.40
2022-11-21T21:35:22.082Z,33.40
2022-11-21T21:37:54.363Z,35.90
2022-11-21T21:40:28.821Z,37.30
2022-11-21T21:43:59.116Z,29.20
2022-11-21T21:46:31.345Z,29.70
2022-11-21T21:53:13.106Z,31.90
2022-11-21T21:55:45.236Z,29.70
2022-11-21T21:58:24.173Z,30.70
2022-11-21T22:07:54.287Z,25.80
2022-11-21T22:10:26.634Z,26.90
2022-11-21T22:14:11.587Z,28.80
2022-11-21T22:16:44.708Z,29.10
2022-11-21T22:23:46.681Z,32.60
2022-11-21T22:27:20.205Z,37.50
2022-11-21T22:29:59.139Z,32.60
2022-11-21T22:32:31.980Z,33.20
2022-11-21T22:40:48.009Z,27.60
2022-11-21T22:43:42.493Z,28.00
2022-11-21T22:46:15.226Z,28.80
2022-11-21T22:53:41.587Z,27.40
2022-11-21T22:56:16.283Z,26.30
2022-11-21T22:58:48.983Z,39.80
2022-11-21T23:01:23.147Z,33.60
2022-11-21T23:04:20.199Z,30.10
2022-11-21T23:06:52.469Z,29.60
2022-11-21T23:09:31.785Z,27.30
2022-11-21T23:12:04.182Z,28.90
2022-11-21T23:14:45.460Z,28.60
2022-11-21T23:17:17.773Z,28.80
2022-11-21T23:19:56.589Z,29.30
2022-11-21T23:22:28.932Z,29.60
2022-11-21T23:25:08.895Z,27.50
2022-11-21T23:27:41.268Z,28.60
2022-11-21T23:34:44.715Z,27.70
2022-11-21T23:37:18.322Z,26.40
2022-11-21T23:39:50.737Z,26.80
2022-11-21T23:42:42.794Z,30.50
2022-11-21T23:54:33.358Z,27.60
2022-11-21T23:57:12.707Z,28.80
2022-11-21T23:59:45.382Z,26.90
